createdAt,value
2023-03-12T00:00:11.234Z,98.10
2023-03-12T00:05:05.899Z,97.70
2023-03-12T00:19:55.866Z,98.20
2023-03-12T00:24:54.215Z,98.70
2023-03-12T00:42:05.453Z,97.90
2023-03-12T00:51:55.149Z,97.60
2023-03-12T01:09:07.760Z,97.20
2023-03-12T01:14:04.066Z,96.70
2023-03-12T01:19:00.254Z,96.70
2023-03-12T01:21:28.868Z,96.90
2023-03-12T01:31:19.243Z,96.70
2023-03-12T01:33:50.444Z,96.70
2023-03-12T01:36:20.765Z,96.60
2023-03-12T01:46:31.759Z,96.90
2023-03-12T01:49:04.531Z,96.80
2023-03-12T01:51:52.496Z,96.50
2023-03-12T01:54:33.657Z,96.70
2023-03-12T01:57:04.334Z,96.90
2023-03-12T01:59:41.781Z,97.00
2023-03-12T02:04:38.891Z,96.90
2023-03-12T02:07:08.804Z,96.90
2023-03-12T02:09:39.944Z,96.60
2023-03-12T02:12:07.739Z,96.70
2023-03-12T02:19:55.332Z,96.60
2023-03-12T02:22:28.824Z,97.40
2023-03-12T02:25:03.859Z,96.90
2023-03-12T02:27:36.660Z,97.40
2023-03-12T02:30:05.205Z,97.30
2023-03-12T02:32:38.369Z,96.90
2023-03-12T02:35:06.903Z,96.90
2023-03-12T02:40:18.075Z,96.50
2023-03-12T02:50:09.352Z,96.60
2023-03-12T02:55:05.832Z,96.10
2023-03-12T02:57:33.800Z,96.30
2023-03-12T03:44:18.973Z,99.90
2023-03-12T04:09:05.245Z,99.90
2023-03-12T04:19:02.472Z,99.90
2023-03-12T05:01:27.239Z,99.90
2023-03-12T05:06:23.305Z,99.90
2023-03-12T05:21:16.651Z,99.90
2023-03-12T05:26:24.531Z,99.90
2023-03-12T05:28:56.002Z,99.90
2023-03-12T05:41:30.104Z,99.90
2023-03-12T05:58:49.999Z,99.90
2023-03-12T06:01:26.839Z,99.90
2023-03-12T06:03:56.360Z,99.90
2023-03-12T06:16:18.775Z,99.90
2023-03-12T06:18:45.698Z,99.90
2023-03-12T06:21:21.542Z,99.90
2023-03-12T06:26:22.928Z,99.90
2023-03-12T06:28:50.496Z,99.90
2023-03-12T06:36:13.428Z,99.90
2023-03-12T06:38:41.298Z,99.90
2023-03-12T06:41:10.973Z,99.90
2023-03-12T06:46:08.045Z,99.90
2023-03-12T06:48:36.850Z,99.90
2023-03-12T06:51:05.124Z,99.90
2023-03-12T06:53:32.793Z,99.90
2023-03-12T07:05:51.315Z,99.90
2023-03-12T07:08:18.918Z,99.90
2023-03-12T07:10:46.439Z,99.90
2023-03-12T07:18:11.066Z,99.90
2023-03-12T07:20:40.231Z,99.90
2023-03-12T07:25:39.198Z,99.90
2023-03-12T07:33:02.294Z,99.90
2023-03-12T07:35:30.196Z,99.90
2023-03-12T07:37:58.343Z,99.90
2023-03-12T07:40:25.654Z,99.90
2023-03-12T07:45:20.991Z,99.90
2023-03-12T07:47:49.695Z,99.90
2023-03-12T07:50:17.854Z,99.90
2023-03-12T07:52:45.882Z,98.20
2023-03-12T07:55:13.592Z,97.90
2023-03-12T08:00:10.608Z,98.00
2023-03-12T08:10:06.822Z,98.20
2023-03-12T08:15:06.280Z,97.70
2023-03-12T08:24:58.344Z,97.50
2023-03-12T08:28:09.750Z,97.90
2023-03-12T08:30:36.734Z,97.20
2023-03-12T08:33:06.860Z,97.30
2023-03-12T08:35:33.919Z,97.40
2023-03-12T08:38:01.784Z,97.30
2023-03-12T08:55:16.831Z,96.60
2023-03-12T09:00:16.340Z,96.80
2023-03-12T09:02:45.120Z,96.20
2023-03-12T09:10:07.648Z,95.00
2023-03-12T09:12:38.710Z,95.70
2023-03-12T09:15:11.514Z,95.60
2023-03-12T09:18:14.489Z,95.60
2023-03-12T09:20:45.698Z,95.60
2023-03-12T09:25:46.549Z,95.20
2023-03-12T09:30:43.589Z,95.10
2023-03-12T09:38:05.787Z,95.00
2023-03-12T09:40:40.346Z,95.20
2023-03-12T09:43:24.295Z,95.20
2023-03-12T09:45:55.431Z,95.40
2023-03-12T09:48:34.041Z,96.70
2023-03-12T09:51:09.424Z,95.20
2023-03-12T09:53:55.373Z,95.30
2023-03-12T09:56:27.028Z,94.60
2023-03-12T09:58:58.564Z,94.50
2023-03-12T10:01:38.151Z,94.10
2023-03-12T10:04:16.289Z,94.50
2023-03-12T10:09:39.825Z,95.20
2023-03-12T10:12:36.580Z,94.60
2023-03-12T10:15:28.658Z,95.50
2023-03-12T10:18:36.734Z,95.70
2023-03-12T10:21:14.121Z,95.80
2023-03-12T10:26:16.446Z,96.60
2023-03-12T10:28:49.231Z,96.20
2023-03-12T10:31:33.357Z,96.40
2023-03-12T10:34:21.229Z,96.90
2023-03-12T10:39:20.085Z,98.00
2023-03-12T10:41:48.551Z,98.90
2023-03-12T10:44:22.770Z,99.30
2023-03-12T10:47:24.839Z,99.30
2023-03-12T10:52:25.671Z,99.90
2023-03-12T10:54:53.601Z,99.90
2023-03-12T10:57:21.232Z,99.90
2023-03-12T10:59:50.172Z,99.90
2023-03-12T11:02:43.265Z,99.90
2023-03-12T11:05:49.153Z,99.90
2023-03-12T11:08:29.786Z,99.90
2023-03-12T11:10:59.343Z,99.90
2023-03-12T11:13:38.308Z,99.90
2023-03-12T11:16:17.425Z,99.90
2023-03-12T11:19:25.811Z,99.90
2023-03-12T11:22:02.180Z,99.90
2023-03-12T11:24:30.581Z,99.90
2023-03-12T11:27:32.784Z,99.90
2023-03-12T11:30:28.574Z,99.90
2023-03-12T11:32:59.009Z,99.90
2023-03-12T11:35:58.059Z,99.90
2023-03-12T11:38:42.438Z,99.90
2023-03-12T11:41:23.317Z,99.90
2023-03-12T11:44:31.617Z,99.90
2023-03-12T11:47:16.665Z,99.90
2023-03-12T11:50:05.546Z,99.90
2023-03-12T11:52:55.114Z,99.90
2023-03-12T11:55:34.190Z,99.90
2023-03-12T11:58:19.871Z,99.90
2023-03-12T12:01:14.293Z,99.90
2023-03-12T12:04:06.578Z,99.90
2023-03-12T12:06:52.860Z,99.90
2023-03-12T12:09:44.452Z,99.90
2023-03-12T12:12:21.284Z,99.90
2023-03-12T12:17:45.508Z,99.90
2023-03-12T12:20:44.608Z,99.90
2023-03-12T12:23:26.770Z,99.90
2023-03-12T12:26:17.730Z,99.90
2023-03-12T12:29:05.503Z,99.90
2023-03-12T12:31:50.554Z,99.90
2023-03-12T12:34:37.506Z,99.90
2023-03-12T12:37:35.250Z,99.90
2023-03-12T12:40:30.759Z,99.90
2023-03-12T12:43:33.467Z,99.90
2023-03-12T12:46:05.913Z,99.90
2023-03-12T12:48:52.151Z,99.90
2023-03-12T12:52:05.014Z,99.90
2023-03-12T12:59:50.605Z,99.90
2023-03-12T13:02:21.917Z,99.90
2023-03-12T13:10:32.503Z,99.90
2023-03-12T13:13:09.539Z,99.90
2023-03-12T13:15:43.792Z,99.90
2023-03-12T13:18:29.150Z,99.90
2023-03-12T13:21:12.430Z,99.90
2023-03-12T13:24:08.542Z,99.90
2023-03-12T13:27:00.455Z,99.90
2023-03-12T13:29:31.397Z,99.90
2023-03-12T13:34:46.814Z,99.90
2023-03-12T13:37:27.826Z,99.90
2023-03-12T13:42:26.945Z,99.90
2023-03-12T13:47:30.782Z,99.90
2023-03-12T13:50:10.662Z,99.90
2023-03-12T13:52:55.531Z,99.90
2023-03-12T13:55:27.287Z,99.90
2023-03-12T13:58:00.722Z,99.90
2023-03-12T14:00:36.594Z,99.90
2023-03-12T14:03:11.885Z,99.90
2023-03-12T14:05:53.465Z,99.90
2023-03-12T14:08:45.734Z,99.90
2023-03-12T14:11:50.601Z,99.90
2023-03-12T14:14:48.396Z,99.90
2023-03-12T14:17:23.658Z,99.90
2023-03-12T14:20:19.841Z,99.90
2023-03-12T14:23:00.218Z,99.90
2023-03-12T14:25:32.006Z,99.90
2023-03-12T14:30:41.067Z,99.90
2023-03-12T14:35:43.582Z,99.90
2023-03-12T14:38:37.257Z,99.90
2023-03-12T14:43:34.673Z,99.90
2023-03-12T14:46:04.855Z,99.90
2023-03-12T14:48:37.034Z,99.90
2023-03-12T14:51:05.960Z,99.90
2023-03-12T14:53:38.095Z,99.90
2023-03-12T14:56:08.322Z,99.90
2023-03-12T14:58:42.021Z,99.90
2023-03-12T15:01:15.274Z,99.90
2023-03-12T15:03:48.520Z,99.90
2023-03-12T15:06:20.048Z,99.90
2023-03-12T15:11:21.981Z,99.90
2023-03-12T15:23:42.891Z,99.90
2023-03-12T15:26:22.174Z,99.90
2023-03-12T15:29:29.368Z,99.90
2023-03-12T15:32:00.792Z,99.90
2023-03-12T15:34:27.948Z,99.90
2023-03-12T15:39:36.879Z,99.90
2023-03-12T15:42:15.726Z,99.90
2023-03-12T15:44:49.182Z,99.90
2023-03-12T15:47:22.609Z,99.90
2023-03-12T15:49:56.888Z,99.90
2023-03-12T15:52:32.565Z,99.90
2023-03-12T15:55:14.121Z,99.90
2023-03-12T15:57:52.791Z,99.90
2023-03-12T16:00:32.143Z,99.90
2023-03-12T16:03:06.067Z,99.90
2023-03-12T16:05:35.866Z,99.90
2023-03-12T16:08:21.088Z,99.90
2023-03-12T16:10:50.023Z,99.90
2023-03-12T16:13:27.338Z,99.90
2023-03-12T16:15:54.867Z,99.90
2023-03-12T16:18:22.937Z,99.90
2023-03-12T16:20:52.668Z,99.90
2023-03-12T16:23:20.216Z,99.90
2023-03-12T16:25:53.298Z,99.90
2023-03-12T16:28:22.455Z,99.90
2023-03-12T16:30:51.302Z,99.90
2023-03-12T16:33:22.067Z,99.90
2023-03-12T16:35:57.785Z,99.90
2023-03-12T16:43:25.488Z,99.90
2023-03-12T16:45:54.220Z,99.90
2023-03-12T16:48:26.625Z,99.90
2023-03-12T16:51:00.770Z,99.90
2023-03-12T16:55:56.837Z,99.90
2023-03-12T16:58:25.743Z,99.90
2023-03-12T17:00:54.459Z,99.90
2023-03-12T17:03:38.080Z,99.90
2023-03-12T17:06:06.918Z,99.90
2023-03-12T17:11:15.257Z,99.90
2023-03-12T17:16:12.743Z,99.90
2023-03-12T17:18:41.071Z,99.90
2023-03-12T17:21:12.350Z,99.90
2023-03-12T17:36:03.001Z,99.90
2023-03-12T17:41:00.082Z,99.90
2023-03-12T17:55:49.326Z,99.90
2023-03-12T17:58:20.657Z,99.90
2023-03-12T18:03:23.948Z,99.90
2023-03-12T18:05:50.987Z,99.90
2023-03-12T18:33:02.704Z,99.90
2023-03-12T18:38:02.303Z,99.90
2023-03-12T18:43:19.256Z,99.90
2023-03-12T18:51:17.865Z,99.90
2023-03-12T18:58:44.636Z,99.90
2023-03-12T19:11:16.480Z,99.90
2023-03-12T19:16:16.314Z,99.90
2023-03-12T19:31:56.062Z,99.90
2023-03-12T19:34:23.251Z,99.90
2023-03-12T19:39:21.730Z,99.90
2023-03-12T19:41:49.953Z,99.90
2023-03-12T19:44:17.059Z,99.90
2023-03-12T19:46:44.076Z,99.90
2023-03-12T19:49:11.029Z,99.90
2023-03-12T19:51:40.213Z,99.90
2023-03-12T19:54:07.974Z,99.90
2023-03-12T19:56:34.850Z,99.90
2023-03-12T19:59:01.735Z,99.90
2023-03-12T20:01:28.638Z,99.90
2023-03-12T20:03:55.638Z,99.90
2023-03-12T20:06:22.575Z,99.90
2023-03-12T20:11:16.918Z,99.90
2023-03-12T20:13:43.842Z,99.90
2023-03-12T20:16:13.193Z,99.90
2023-03-12T20:18:40.070Z,99.90
2023-03-12T20:21:07.037Z,99.90
2023-03-12T20:23:34.093Z,99.90
2023-03-12T20:26:01.025Z,99.90
2023-03-12T20:28:27.970Z,99.90
2023-03-12T20:30:57.585Z,99.90
2023-03-12T20:33:24.567Z,99.90
2023-03-12T20:35:52.853Z,99.90
2023-03-12T20:38:19.769Z,99.90
2023-03-12T20:40:46.846Z,99.90
2023-03-12T20:43:13.874Z,99.90
2023-03-12T20:45:41.000Z,99.90
2023-03-12T20:48:07.958Z,99.90
2023-03-12T20:50:38.951Z,99.90
2023-03-12T20:53:06.284Z,99.90
2023-03-12T20:58:00.609Z,99.90
2023-03-12T21:00:27.708Z,99.90
2023-03-12T21:02:54.706Z,99.90
2023-03-12T21:05:24.858Z,99.90
2023-03-12T21:07:52.491Z,99.90
2023-03-12T21:10:19.913Z,99.90
2023-03-12T21:12:47.178Z,99.90
2023-03-12T21:15:14.158Z,99.90
2023-03-12T21:17:41.340Z,99.90
2023-03-12T21:20:13.455Z,99.90
2023-03-12T21:22:43.369Z,99.90
2023-03-12T21:25:11.730Z,99.90
2023-03-12T21:27:49.776Z,99.90
2023-03-12T21:30:18.899Z,99.90
2023-03-12T21:32:45.816Z,99.90
2023-03-12T21:35:12.936Z,99.90
2023-03-12T21:37:40.077Z,99.90
2023-03-12T21:40:09.229Z,99.90
2023-03-12T21:45:04.437Z,99.90
2023-03-12T21:47:31.870Z,99.90
2023-03-12T21:49:58.961Z,99.90
2023-03-12T21:52:25.848Z,99.90
2023-03-12T21:54:52.806Z,99.90
2023-03-12T21:57:19.858Z,99.90
2023-03-12T21:59:46.860Z,99.90
2023-03-12T22:02:14.829Z,99.90
2023-03-12T22:04:42.190Z,99.90
2023-03-12T22:07:09.349Z,99.90
2023-03-12T22:09:36.377Z,99.90
2023-03-12T22:12:04.009Z,99.90
2023-03-12T22:14:31.156Z,99.90
2023-03-12T22:16:58.183Z,99.90
2023-03-12T22:19:25.196Z,99.90
2023-03-12T22:21:52.285Z,99.90
2023-03-12T22:24:19.200Z,99.90
2023-03-12T22:26:46.633Z,99.90
2023-03-12T22:29:13.744Z,99.90
2023-03-12T22:31:40.805Z,99.90
2023-03-12T22:34:07.772Z,99.90
2023-03-12T22:36:34.798Z,99.90
2023-03-12T22:39:01.714Z,99.90
2023-03-12T22:41:30.111Z,99.90
2023-03-12T22:44:01.493Z,99.90
2023-03-12T22:46:29.125Z,99.90
2023-03-12T22:48:58.590Z,99.90
2023-03-12T22:51:26.311Z,99.90
2023-03-12T22:53:53.514Z,99.90
2023-03-12T22:58:48.912Z,99.90
2023-03-12T23:01:21.186Z,99.90
2023-03-12T23:03:49.212Z,99.90
2023-03-12T23:06:19.300Z,99.90
2023-03-12T23:08:47.894Z,99.90
2023-03-12T23:11:16.185Z,99.90
2023-03-12T23:13:44.960Z,99.90
2023-03-12T23:16:17.991Z,99.90
2023-03-12T23:18:45.556Z,99.90
2023-03-12T23:21:15.541Z,99.90
2023-03-12T23:23:43.579Z,99.90
2023-03-12T23:26:19.482Z,99.90
2023-03-12T23:28:47.439Z,99.90
2023-03-12T23:31:16.150Z,99.90
2023-03-12T23:33:43.990Z,99.90
2023-03-12T23:36:17.940Z,99.90
2023-03-12T23:41:24.472Z,99.90
2023-03-12T23:43:52.315Z,99.90
2023-03-12T23:46:19.841Z,99.90
2023-03-12T23:48:47.491Z,99.90
2023-03-12T23:51:23.919Z,99.90
2023-03-12T23:53:55.460Z,99.90
2023-03-12T23:56:24.860Z,99.90
2023-03-12T23:58:51.954Z,99.90
